Time;durP1;ratioP1;P1;durP2;ratioP2;P2;SDS_P1;SDS_P2;PMS_P1;PMS_P2;Temp;Humidity;BMP_temperature;BMP_pressure;BME280_temperature;BME280_humidity;BME280_pressure;Samples;Min_cycle;Max_cycle;Signal;HPM_P1;HPM_P2
2023/03/14 00:01:45;;;;;;;1999.90;999.90;;;;;;;10.92;80.18;97226.94;5112809;28;20027;-84
2023/03/14 00:04:10;;;;;;;1999.90;999.90;;;;;;;10.90;80.14;97226.44;5113448;28;20028;-79
2023/03/14 00:06:36;;;;;;;1999.90;999.90;;;;;;;10.91;80.67;97228.03;5113043;28;20161;-82
2023/03/14 00:09:01;;;;;;;1999.90;999.90;;;;;;;10.88;80.60;97217.72;5113748;28;20468;-80
2023/03/14 00:11:26;;;;;;;1999.90;999.90;;;;;;;10.84;81.30;97217.56;5114292;28;20024;-83
2023/03/14 00:13:52;;;;;;;1999.90;999.90;;;;;;;10.88;81.81;97215.00;5113405;28;20113;-82
2023/03/14 00:16:19;;;;;;;1999.90;999.90;;;;;;;10.94;82.76;97224.69;5113177;28;20027;-80
2023/03/14 00:18:44;;;;;;;1999.90;999.90;;;;;;;10.97;83.63;97227.59;5113306;28;20147;-83
2023/03/14 00:21:11;;;;;;;1999.90;999.90;;;;;;;10.97;85.42;97222.13;5113238;28;20023;-85
2023/03/14 00:23:38;;;;;;;1999.90;999.90;;;;;;;10.95;86.46;97209.88;5113576;27;20019;-83
2023/03/14 00:26:09;;;;;;;1999.90;999.90;;;;;;;11.03;86.86;97212.66;5113349;28;20940;-83
2023/03/14 00:28:35;;;;;;;1999.90;999.90;;;;;;;10.99;87.51;97211.69;5112583;28;20020;-87
2023/03/14 00:31:06;;;;;;;1999.90;999.90;;;;;;;11.00;87.60;97209.72;5111477;28;20042;-88
2023/03/14 00:33:31;;;;;;;1999.90;999.90;;;;;;;10.94;89.09;97203.59;5113203;28;20084;-86
2023/03/14 00:36:00;;;;;;;1999.90;999.90;;;;;;;10.95;89.90;97201.69;5112672;28;20035;-83
2023/03/14 00:38:26;;;;;;;1999.90;999.90;;;;;;;10.95;90.06;97196.19;5109893;28;20106;-78
2023/03/14 00:40:52;;;;;;;1999.90;999.90;;;;;;;10.98;90.38;97203.78;5071466;28;20112;-78
2023/03/14 00:43:21;;;;;;;1999.90;999.90;;;;;;;11.02;90.06;97189.16;5080760;28;20028;-79
2023/03/14 00:45:46;;;;;;;1999.90;999.90;;;;;;;11.01;90.05;97182.06;5091376;28;20028;-77
2023/03/14 00:48:13;;;;;;;1999.90;999.90;;;;;;;10.98;90.53;97177.22;5103747;28;20042;-76
2023/03/14 00:50:39;;;;;;;1999.90;999.90;;;;;;;11.04;90.28;97175.94;5111428;28;20032;-76
2023/03/14 00:53:04;;;;;;;1999.90;999.90;;;;;;;11.08;90.28;97159.72;5111539;27;20525;-81
2023/03/14 00:55:30;;;;;;;1999.90;999.90;;;;;;;11.01;91.55;97146.50;5110349;28;20036;-77
2023/03/14 00:57:55;;;;;;;1999.90;999.90;;;;;;;11.01;92.37;97137.47;5111855;27;20516;-80
2023/03/14 01:00:21;;;;;;;1999.90;999.90;;;;;;;11.02;94.93;97128.97;5112023;28;20107;-77
2023/03/14 01:02:46;;;;;;;1999.90;999.90;;;;;;;10.98;95.96;97129.91;5112231;28;20388;-80
2023/03/14 01:05:11;;;;;;;1999.90;999.90;;;;;;;10.99;95.75;97123.31;5112482;28;20066;-78
2023/03/14 01:07:37;;;;;;;1999.90;999.90;;;;;;;11.00;96.36;97124.91;5111747;28;20096;-78
2023/03/14 01:10:04;;;;;;;1999.90;999.90;;;;;;;10.91;97.33;97124.06;5110330;28;20486;-75
2023/03/14 01:12:30;;;;;;;1999.90;999.90;;;;;;;10.90;97.46;97119.75;5111409;28;20064;-76
2023/03/14 01:14:55;;;;;;;1999.90;999.90;;;;;;;10.85;97.39;97106.19;5111119;28;20063;-77
2023/03/14 01:17:22;;;;;;;1999.90;999.90;;;;;;;10.84;97.28;97099.91;5111377;28;20498;-77
2023/03/14 01:19:47;;;;;;;1999.90;999.90;;;;;;;10.80;97.08;97085.28;5111430;28;20114;-79
2023/03/14 01:22:13;;;;;;;1999.90;999.90;;;;;;;10.86;96.32;97080.47;5112119;28;20494;-84
2023/03/14 01:24:38;;;;;;;1999.90;999.90;;;;;;;10.81;96.80;97080.63;5115786;28;20024;-82
2023/03/14 01:27:03;;;;;;;1999.90;999.90;;;;;;;10.74;97.07;97073.66;5112745;28;20023;-83
2023/03/14 01:29:29;;;;;;;1999.90;999.90;;;;;;;10.72;97.25;97064.97;5112350;28;20024;-84
2023/03/14 01:31:54;;;;;;;1999.90;999.90;;;;;;;10.70;97.41;97050.00;5112113;28;20043;-84
2023/03/14 01:34:20;;;;;;;1999.90;999.90;;;;;;;10.64;98.12;97067.69;5112217;28;20068;-82
2023/03/14 01:36:45;;;;;;;1999.90;999.90;;;;;;;10.72;97.93;97066.91;5095220;28;20023;-86
2023/03/14 01:39:10;;;;;;;1999.90;999.90;;;;;;;10.81;97.59;97065.00;5118312;28;20023;-87
2023/03/14 01:41:36;;;;;;;1999.90;999.90;;;;;;;10.87;96.62;97052.00;5120954;27;20073;-86
2023/03/14 01:44:01;;;;;;;1999.90;999.90;;;;;;;10.89;97.28;97052.47;5120961;27;20035;-86
2023/03/14 01:46:45;;;;;;;1999.90;999.90;;;;;;;10.88;98.36;97040.72;5121178;27;20456;-87
2023/03/14 01:49:29;;;;;;;1999.90;999.90;;;;;;;10.83;100.00;97042.81;5119884;28;20468;-84
2023/03/14 01:52:41;;;;;;;1999.90;999.90;;;;;;;10.79;100.00;97039.91;5120757;27;20096;-87
2023/03/14 01:55:12;;;;;;;1999.90;999.90;;;;;;;10.84;100.00;97028.78;5087163;28;20556;-86
2023/03/14 01:57:44;;;;;;;1999.90;999.90;;;;;;;10.88;100.00;97024.28;5121922;27;20024;-86
2023/03/14 02:00:14;;;;;;;1999.90;999.90;;;;;;;10.92;100.00;97013.53;5121045;28;20020;-88
2023/03/14 02:02:43;;;;;;;1999.90;999.90;;;;;;;10.87;100.00;97002.75;5120894;27;20016;-88
2023/03/14 02:05:10;;;;;;;1999.90;999.90;;;;;;;10.80;100.00;96999.69;5122710;27;20020;-83
2023/03/14 02:07:49;;;;;;;1999.90;999.90;;;;;;;10.81;100.00;97006.75;5124053;27;20033;-89
2023/03/14 02:10:18;;;;;;;1999.90;999.90;;;;;;;10.82;100.00;96994.69;5122809;28;20054;-88
2023/03/14 02:12:46;;;;;;;1999.90;999.90;;;;;;;10.77;100.00;96989.38;5121811;27;20127;-82
2023/03/14 02:15:11;;;;;;;1999.90;999.90;;;;;;;10.80;100.00;96980.53;5121962;28;20035;-87
2023/03/14 02:17:37;;;;;;;1999.90;999.90;;;;;;;10.75;100.00;96965.88;5122522;27;20053;-90
2023/03/14 02:20:21;;;;;;;1999.90;999.90;;;;;;;10.77;100.00;96966.34;5123853;27;20475;-89
2023/03/14 02:22:47;;;;;;;1999.90;999.90;;;;;;;10.76;100.00;96966.69;5123859;28;20026;-88
2023/03/14 02:25:31;;;;;;;1999.90;999.90;;;;;;;10.77;100.00;96971.81;5120481;28;20027;-86
2023/03/14 02:27:57;;;;;;;1999.90;999.90;;;;;;;10.77;100.00;96955.41;5106342;28;20036;-87
2023/03/14 02:30:25;;;;;;;1999.90;999.90;;;;;;;10.77;100.00;96946.41;5100031;28;20115;-85
2023/03/14 02:33:04;;;;;;;1999.90;999.90;;;;;;;10.81;100.00;96941.13;5099764;28;20024;-82
2023/03/14 02:35:35;;;;;;;1999.90;999.90;;;;;;;10.78;100.00;96920.66;5099484;28;20110;-85
2023/03/14 02:38:23;;;;;;;1999.90;999.90;;;;;;;10.75;100.00;96922.09;5099117;28;20391;-90
2023/03/14 02:40:49;;;;;;;1999.90;999.90;;;;;;;10.77;100.00;96923.72;5100707;28;20078;-85
2023/03/14 02:43:14;;;;;;;1999.90;999.90;;;;;;;10.77;100.00;96919.06;5100500;28;20032;-82
2023/03/14 02:45:45;;;;;;;1999.90;999.90;;;;;;;10.70;100.00;96911.34;5100188;28;20082;-86
2023/03/14 02:48:15;;;;;;;1999.90;999.90;;;;;;;10.80;100.00;96915.69;5099189;28;20539;-85
2023/03/14 02:50:41;;;;;;;1999.90;999.90;;;;;;;10.82;100.00;96910.69;5095622;28;20537;-81
2023/03/14 02:53:07;;;;;;;1999.90;999.90;;;;;;;10.84;100.00;96902.94;5089755;28;20032;-84
2023/03/14 02:55:32;;;;;;;1999.90;999.90;;;;;;;10.84;100.00;96902.16;5080419;28;20083;-81
2023/03/14 02:57:58;;;;;;;1999.90;999.90;;;;;;;10.84;100.00;96907.66;5074668;28;20027;-84
2023/03/14 03:00:23;;;;;;;1999.90;999.90;;;;;;;10.84;100.00;96902.16;5096113;28;20063;-83
2023/03/14 03:02:49;;;;;;;1999.90;999.90;;;;;;;10.85;100.00;96906.50;5097478;28;20069;-90
2023/03/14 03:05:14;;;;;;;1999.90;999.90;;;;;;;10.88;100.00;96895.72;5095409;28;20027;-84
2023/03/14 03:07:40;;;;;;;1999.90;999.90;;;;;;;10.91;100.00;96897.81;5095666;28;20031;-84
2023/03/14 03:10:05;;;;;;;1999.90;999.90;;;;;;;10.98;100.00;96886.38;5095582;28;20020;-86
2023/03/14 03:12:31;;;;;;;1999.90;999.90;;;;;;;10.91;100.00;96880.56;5099462;28;20028;-75
2023/03/14 03:14:56;;;;;;;1999.90;999.90;;;;;;;10.93;100.00;96859.97;5094655;28;20127;-85
2023/03/14 03:17:22;;;;;;;1999.90;999.90;;;;;;;10.93;100.00;96861.94;5097316;28;20468;-84
2023/03/14 03:19:47;;;;;;;1999.90;999.90;;;;;;;10.96;100.00;96861.28;5117923;28;20020;-79
2023/03/14 03:22:12;;;;;;;1999.90;999.90;;;;;;;10.98;100.00;96876.25;5121423;28;20024;-83
2023/03/14 03:24:38;;;;;;;1999.90;999.90;;;;;;;10.97;100.00;96874.63;5122901;28;20117;-84
2023/03/14 03:27:06;;;;;;;1999.90;999.90;;;;;;;11.07;100.00;96870.75;5115816;28;20035;-85
2023/03/14 03:29:34;;;;;;;1999.90;999.90;;;;;;;11.02;100.00;96870.91;5094374;28;20016;-81
2023/03/14 03:31:59;;;;;;;1999.90;999.90;;;;;;;11.10;100.00;96872.81;5095749;28;20039;-84
2023/03/14 03:34:27;;;;;;;1999.90;999.90;;;;;;;11.06;100.00;96869.13;5106384;28;20051;-83
2023/03/14 03:36:56;;;;;;;1999.90;999.90;;;;;;;11.16;100.00;96874.25;5113681;28;20319;-79
2023/03/14 03:39:21;;;;;;;1999.90;999.90;;;;;;;11.16;100.00;96868.78;5117527;28;20106;-84
2023/03/14 03:41:47;;;;;;;1999.90;999.90;;;;;;;11.12;100.00;96868.63;5121678;28;20431;-84
2023/03/14 03:44:12;;;;;;;1999.90;999.90;;;;;;;11.16;100.00;96877.00;5118655;27;20023;-89
2023/03/14 03:46:38;;;;;;;1999.90;999.90;;;;;;;11.20;100.00;96875.22;5117367;28;20020;-82
2023/03/14 03:49:03;;;;;;;1999.90;999.90;;;;;;;11.25;100.00;96878.59;5115429;28;20026;-85
2023/03/14 03:51:28;;;;;;;1999.90;999.90;;;;;;;11.21;100.00;96863.94;5117548;28;20448;-83
2023/03/14 03:53:55;;;;;;;1999.90;999.90;;;;;;;11.33;100.00;96876.16;5117710;28;20027;-84
2023/03/14 03:56:20;;;;;;;1999.90;999.90;;;;;;;11.32;100.00;96867.13;5118771;28;20062;-84
2023/03/14 03:58:46;;;;;;;1999.90;999.90;;;;;;;11.40;100.00;96865.50;5117148;28;20019;-84
2023/03/14 04:01:11;;;;;;;1999.90;999.90;;;;;;;11.50;100.00;96868.69;5110651;28;20033;-87
2023/03/14 04:03:40;;;;;;;1999.90;999.90;;;;;;;11.44;100.00;96845.34;5087004;28;20103;-86
2023/03/14 04:06:09;;;;;;;1999.90;999.90;;;;;;;11.46;100.00;96856.00;5097494;28;20434;-88
2023/03/14 04:08:34;;;;;;;1999.90;999.90;;;;;;;11.57;100.00;96868.97;5095722;28;20016;-82
2023/03/14 04:11:01;;;;;;;1999.90;999.90;;;;;;;11.60;100.00;96870.25;5096718;28;20035;-89
2023/03/14 04:13:27;;;;;;;1999.90;999.90;;;;;;;11.61;100.00;96856.25;5096969;28;20111;-86
2023/03/14 04:15:54;;;;;;;1999.90;999.90;;;;;;;11.60;100.00;96845.59;5097260;28;20034;-84
2023/03/14 04:18:20;;;;;;;1999.90;999.90;;;;;;;11.60;100.00;96843.69;5097775;28;20426;-86
2023/03/14 04:20:50;;;;;;;1999.90;999.90;;;;;;;11.58;100.00;96847.88;5096996;28;20032;-84
2023/03/14 04:23:16;;;;;;;1999.90;999.90;;;;;;;11.58;100.00;96856.91;5097290;28;20487;-85
2023/03/14 04:25:41;;;;;;;1999.90;999.90;;;;;;;11.54;100.00;96845.00;5095202;28;20024;-90
2023/03/14 04:28:07;;;;;;;1999.90;999.90;;;;;;;11.52;100.00;96835.50;5097974;28;20033;-84
2023/03/14 04:30:32;;;;;;;1999.90;999.90;;;;;;;11.52;100.00;96835.50;5096438;28;20035;-87
2023/03/14 04:32:57;;;;;;;1999.90;999.90;;;;;;;11.48;100.00;96842.75;5097020;28;20032;-88
2023/03/14 04:35:23;;;;;;;1999.90;999.90;;;;;;;11.47;100.00;96831.00;5096785;28;20024;-86
2023/03/14 04:37:48;;;;;;;1999.90;999.90;;;;;;;11.48;100.00;96840.84;5096851;28;20446;-87
2023/03/14 04:40:15;;;;;;;1999.90;999.90;;;;;;;11.47;100.00;96828.25;5096457;28;20839;-83
2023/03/14 04:42:40;;;;;;;1999.90;999.90;;;;;;;11.43;100.00;96827.34;5095943;28;20034;-85
2023/03/14 04:45:07;;;;;;;1999.90;999.90;;;;;;;11.45;100.00;96827.81;5095355;28;20032;-85
2023/03/14 04:47:33;;;;;;;1999.90;999.90;;;;;;;11.42;100.00;96831.19;5097471;28;20024;-84
2023/03/14 04:49:58;;;;;;;1999.90;999.90;;;;;;;11.47;100.00;96816.50;5096120;28;20012;-85
2023/03/14 04:52:24;;;;;;;1999.90;999.90;;;;;;;11.44;100.00;96828.91;5095935;28;20126;-87
2023/03/14 04:54:49;;;;;;;1999.90;999.90;;;;;;;11.44;100.00;96817.16;5094000;28;20069;-86
2023/03/14 04:57:15;;;;;;;1999.90;999.90;;;;;;;11.42;100.00;96808.47;5093819;28;20025;-87
2023/03/14 04:59:40;;;;;;;1999.90;999.90;;;;;;;11.44;100.00;96807.00;5094930;28;20109;-84
2023/03/14 05:02:05;;;;;;;1999.90;999.90;;;;;;;11.43;100.00;96819.13;5094889;28;20031;-89
2023/03/14 05:04:32;;;;;;;1999.90;999.90;;;;;;;11.41;100.00;96813.16;5098745;28;20071;-86
2023/03/14 05:06:58;;;;;;;1999.90;999.90;;;;;;;11.39;100.00;96801.72;5095158;28;20020;-75
2023/03/14 05:09:24;;;;;;;1999.90;999.90;;;;;;;11.39;100.00;96798.19;5090798;28;20035;-75
2023/03/14 05:11:49;;;;;;;1999.90;999.90;;;;;;;11.43;100.00;96797.22;5090808;28;20031;-81
2023/03/14 05:14:14;;;;;;;1999.90;999.90;;;;;;;11.43;100.00;96788.19;5090013;28;20036;-75
2023/03/14 05:16:40;;;;;;;1999.90;999.90;;;;;;;11.41;100.00;96777.56;5090662;28;20037;-79
2023/03/14 05:19:05;;;;;;;1999.90;999.90;;;;;;;11.43;100.00;96786.25;5092615;28;20105;-82
2023/03/14 05:21:30;;;;;;;1999.90;999.90;;;;;;;11.40;100.00;96788.84;5086799;28;20115;-77
2023/03/14 05:23:56;;;;;;;1999.90;999.90;;;;;;;11.39;100.00;96782.56;5084924;28;20028;-83
2023/03/14 05:26:21;;;;;;;1999.90;999.90;;;;;;;11.37;100.00;96771.13;5097303;28;20020;-77
2023/03/14 05:28:46;;;;;;;1999.90;999.90;;;;;;;11.36;100.00;96761.31;5070771;28;20107;-77
2023/03/14 05:31:12;;;;;;;1999.90;999.90;;;;;;;11.41;100.00;96757.59;5070101;28;20036;-79
2023/03/14 05:33:37;;;;;;;1999.90;999.90;;;;;;;11.38;100.00;96756.31;5070309;28;20556;-75
2023/03/14 05:36:03;;;;;;;1999.90;999.90;;;;;;;11.45;100.00;96764.81;5070726;28;20036;-79
2023/03/14 05:38:28;;;;;;;1999.90;999.90;;;;;;;11.46;100.00;96754.69;5070829;28;20021;-77
2023/03/14 05:40:54;;;;;;;1999.90;999.90;;;;;;;11.47;100.00;96735.16;5090940;28;20118;-79
2023/03/14 05:43:19;;;;;;;1999.90;999.90;;;;;;;11.44;100.00;96740.50;5091084;28;20465;-77
2023/03/14 05:45:44;;;;;;;1999.90;999.90;;;;;;;11.41;100.00;96736.50;5092285;28;20059;-79
2023/03/14 05:48:10;;;;;;;1999.90;999.90;;;;;;;11.44;100.00;96743.22;5091846;28;20024;-77
2023/03/14 05:50:36;;;;;;;1999.90;999.90;;;;;;;11.44;100.00;96741.31;5093051;28;20512;-84
2023/03/14 05:53:02;;;;;;;1999.90;999.90;;;;;;;11.55;100.00;96748.03;5091676;28;20032;-80
2023/03/14 05:55:31;;;;;;;1999.90;999.90;;;;;;;11.64;100.00;96762.47;5093203;28;20098;-84
2023/03/14 05:57:59;;;;;;;1999.90;999.90;;;;;;;11.67;100.00;96775.50;5096308;28;20053;-84
2023/03/14 06:00:25;;;;;;;1999.90;999.90;;;;;;;11.70;100.00;96782.28;5092600;28;20425;-86
2023/03/14 06:02:51;;;;;;;1999.90;999.90;;;;;;;11.75;100.00;96784.81;5092375;28;20107;-82
2023/03/14 06:05:16;;;;;;;1999.90;999.90;;;;;;;11.80;100.00;96779.16;5093007;28;20025;-85
2023/03/14 06:07:41;;;;;;;1999.90;999.90;;;;;;;11.92;100.00;96764.72;5096778;28;20027;-75
2023/03/14 06:10:08;;;;;;;1999.90;999.90;;;;;;;12.08;100.00;96757.50;5099427;28;20064;-81
2023/03/14 06:12:33;;;;;;;1999.90;999.90;;;;;;;12.18;100.00;96760.66;5096561;28;20020;-83
2023/03/14 06:14:59;;;;;;;1999.90;999.90;;;;;;;12.36;100.00;96755.84;5095496;28;20129;-83
2023/03/14 06:17:24;;;;;;;1999.90;999.90;;;;;;;12.45;100.00;96753.81;5096259;28;20031;-81
2023/03/14 06:19:49;;;;;;;1999.90;999.90;;;;;;;12.43;100.00;96727.88;5095769;28;20434;-77
2023/03/14 06:22:15;;;;;;;1999.90;999.90;;;;;;;12.49;100.00;96759.44;5092820;28;20024;-81
2023/03/14 06:24:40;;;;;;;1999.90;999.90;;;;;;;12.39;100.00;96760.66;5090503;28;20028;-76
2023/03/14 06:27:06;;;;;;;1999.90;999.90;;;;;;;12.41;100.00;96757.56;5095570;28;20118;-86
2023/03/14 06:29:31;;;;;;;1999.90;999.90;;;;;;;12.40;100.00;96762.25;5095135;28;20024;-79
2023/03/14 06:31:57;;;;;;;1999.90;999.90;;;;;;;12.33;100.00;96757.31;5092866;28;20051;-79
2023/03/14 06:34:22;;;;;;;1999.90;999.90;;;;;;;12.27;100.00;96735.91;5093469;28;20403;-76
2023/03/14 06:36:47;;;;;;;1999.90;999.90;;;;;;;12.42;99.58;96765.47;5092802;28;20019;-77
2023/03/14 06:39:13;;;;;;;1999.90;999.90;;;;;;;12.54;97.50;96765.50;5093485;28;20085;-77
2023/03/14 06:41:38;;;;;;;1999.90;999.90;;;;;;;12.60;96.21;96768.81;5093398;28;20129;-89
2023/03/14 06:44:04;;;;;;;1999.90;999.90;;;;;;;12.61;96.03;96768.50;5092373;28;20040;-78
2023/03/14 06:46:30;;;;;;;1999.90;999.90;;;;;;;12.62;95.23;96772.88;5093649;28;20028;-76
2023/03/14 06:49:03;;;;;;;1999.90;999.90;;;;;;;12.75;93.24;96779.97;5093627;28;20016;-78
2023/03/14 06:51:28;;;;;;;1999.90;999.90;;;;;;;12.95;91.45;96785.75;5093377;28;20024;-79
2023/03/14 06:53:54;;;;;;;1999.90;999.90;;;;;;;12.88;90.27;96767.09;5093654;28;20059;-77
2023/03/14 06:56:19;;;;;;;1999.90;999.90;;;;;;;13.03;89.45;96769.19;5093364;28;20039;-76
2023/03/14 06:58:45;;;;;;;1999.90;999.90;;;;;;;13.30;87.10;96773.28;5094232;28;20540;-79
2023/03/14 07:01:32;;;;;;;1999.90;999.90;;;;;;;13.42;83.71;96765.03;5093749;28;20020;-80
2023/03/14 07:03:58;;;;;;;1999.90;999.90;;;;;;;13.38;84.09;96783.34;5093966;28;20078;-77
2023/03/14 07:06:24;;;;;;;1999.90;999.90;;;;;;;13.16;85.60;96779.06;5102118;28;20083;-87
2023/03/14 07:08:49;;;;;;;1999.90;999.90;;;;;;;13.09;87.17;96783.53;5106317;28;20027;-83
2023/03/14 07:11:14;;;;;;;1999.90;999.90;;;;;;;12.61;89.54;96721.88;5103706;28;20067;-88
2023/03/14 07:13:40;;;;;;;1999.90;999.90;;;;;;;12.79;92.45;96767.19;5098515;28;20128;-91
2023/03/14 07:16:06;;;;;;;1999.90;999.90;;;;;;;12.58;95.94;96769.19;5099008;28;20369;-86
2023/03/14 07:18:31;;;;;;;1999.90;999.90;;;;;;;12.55;99.47;96758.06;5097358;28;20487;-88
2023/03/14 07:20:57;;;;;;;1999.90;999.90;;;;;;;12.40;100.00;96754.03;5099355;28;20021;-87
2023/03/14 07:23:22;;;;;;;1999.90;999.90;;;;;;;12.48;100.00;96744.09;5097173;28;20023;-89
2023/03/14 07:25:47;;;;;;;1999.90;999.90;;;;;;;12.27;100.00;96742.19;5094692;28;20400;-85
2023/03/14 07:28:13;;;;;;;1999.90;999.90;;;;;;;12.28;100.00;96741.03;5096658;28;20105;-84
2023/03/14 07:30:38;;;;;;;1999.90;999.90;;;;;;;12.24;100.00;96731.91;5098980;28;20028;-85
2023/03/14 07:33:04;;;;;;;1999.90;999.90;;;;;;;12.40;100.00;96718.38;5098554;28;20075;-83
2023/03/14 07:35:29;;;;;;;1999.90;999.90;;;;;;;12.74;100.00;96714.47;5097498;28;20084;-89
2023/03/14 07:37:54;;;;;;;1999.90;999.90;;;;;;;13.42;99.60;96723.84;5099435;28;20036;-84
2023/03/14 07:40:20;;;;;;;1999.90;999.90;;;;;;;14.57;89.63;96721.38;5098974;28;20035;-87
2023/03/14 07:42:46;;;;;;;1999.90;999.90;;;;;;;14.71;85.61;96733.59;5100818;28;20023;-83
2023/03/14 07:45:11;;;;;;;1999.90;999.90;;;;;;;14.57;85.47;96729.66;5098135;28;20127;-85
2023/03/14 07:47:37;;;;;;;1999.90;999.90;;;;;;;15.14;84.45;96732.78;5097423;28;20056;-88
2023/03/14 07:50:04;;;;;;;1999.90;999.90;;;;;;;15.63;78.63;96715.91;5086756;28;20496;-83
2023/03/14 07:52:29;;;;;;;1999.90;999.90;;;;;;;15.14;80.45;96729.22;5078526;28;20571;-85
2023/03/14 07:54:55;;;;;;;1999.90;999.90;;;;;;;14.64;84.09;96722.41;5080673;28;20035;-83
2023/03/14 07:57:20;;;;;;;1999.90;999.90;;;;;;;14.20;87.76;96728.97;5081157;28;20025;-90
2023/03/14 07:59:46;;;;;;;1999.90;999.90;;;;;;;13.92;89.18;96724.22;5082307;28;20056;-84
2023/03/14 08:02:12;;;;;;;1999.90;999.90;;;;;;;13.75;91.02;96723.69;5081831;28;20013;-86
2023/03/14 08:04:38;;;;;;;1999.90;999.90;;;;;;;13.52;92.69;96733.56;5080616;28;20024;-87
2023/03/14 08:07:04;;;;;;;1999.90;999.90;;;;;;;13.22;95.14;96732.97;5080661;28;20032;-87
2023/03/14 08:09:29;;;;;;;1999.90;999.90;;;;;;;13.14;96.80;96709.19;5078953;28;20043;-86
2023/03/14 08:11:54;;;;;;;1999.90;999.90;;;;;;;13.10;98.31;96713.75;5080214;28;20032;-87
2023/03/14 08:14:20;;;;;;;1999.90;999.90;;;;;;;13.14;98.63;96699.00;5079714;28;20041;-84
2023/03/14 08:16:45;;;;;;;1999.90;999.90;;;;;;;13.08;99.83;96705.03;5077625;28;20035;-83
2023/03/14 08:19:11;;;;;;;1999.90;999.90;;;;;;;13.16;100.00;96701.38;5076718;28;20493;-83
2023/03/14 08:21:36;;;;;;;1999.90;999.90;;;;;;;13.03;100.00;96705.25;5077649;28;20025;-85
2023/03/14 08:24:02;;;;;;;1999.90;999.90;;;;;;;12.92;100.00;96701.34;5078073;28;20024;-87
2023/03/14 08:26:27;;;;;;;1999.90;999.90;;;;;;;12.90;100.00;96693.47;5076476;28;20024;-90
2023/03/14 08:28:52;;;;;;;1999.90;999.90;;;;;;;12.96;100.00;96696.78;5077229;28;20020;-87
2023/03/14 08:31:18;;;;;;;1999.90;999.90;;;;;;;13.03;99.29;96708.00;5076665;28;20099;-87
2023/03/14 08:33:43;;;;;;;1999.90;999.90;;;;;;;13.36;97.88;96695.81;5076806;28;20020;-88
2023/03/14 08:36:09;;;;;;;1999.90;999.90;;;;;;;13.83;94.56;96676.84;5078338;28;20021;-85
2023/03/14 08:38:35;;;;;;;1999.90;999.90;;;;;;;14.21;91.04;96664.56;5078138;28;20028;-90
2023/03/14 08:41:02;;;;;;;1999.90;999.90;;;;;;;14.17;87.93;96661.72;5078458;28;20408;-87
2023/03/14 08:43:28;;;;;;;1999.90;999.90;;;;;;;14.34;86.12;96653.19;5077602;28;20017;-88
2023/03/14 08:45:56;;;;;;;1999.90;999.90;;;;;;;14.80;81.18;96648.91;5078279;28;20021;-81
2023/03/14 08:48:22;;;;;;;1999.90;999.90;;;;;;;17.32;68.87;96666.03;5075615;28;20082;-86
2023/03/14 08:50:47;;;;;;;1999.90;999.90;;;;;;;19.08;59.71;96665.56;5078127;28;20028;-85
2023/03/14 08:53:13;;;;;;;1999.90;999.90;;;;;;;18.63;58.27;96657.59;5077544;28;20021;-84
2023/03/14 08:55:38;;;;;;;1999.90;999.90;;;;;;;19.04;56.21;96645.34;5077182;28;20029;-84
2023/03/14 08:58:04;;;;;;;1999.90;999.90;;;;;;;18.50;56.93;96642.41;5076731;28;20009;-85
2023/03/14 09:00:29;;;;;;;1999.90;999.90;;;;;;;17.21;61.22;96648.47;5077754;28;20040;-84
2023/03/14 09:02:54;;;;;;;1999.90;999.90;;;;;;;16.53;64.34;96660.28;5078921;28;20025;-88
2023/03/14 09:05:20;;;;;;;1999.90;999.90;;;;;;;16.34;65.33;96638.22;5076815;28;20062;-84
2023/03/14 09:07:45;;;;;;;1999.90;999.90;;;;;;;16.48;64.43;96610.88;5075688;28;20512;-87
2023/03/14 09:10:11;;;;;;;1999.90;999.90;;;;;;;16.13;65.18;96612.97;5076272;28;20048;-87
2023/03/14 09:12:36;;;;;;;1999.90;999.90;;;;;;;15.78;67.40;96626.81;5076646;28;20046;-85
2023/03/14 09:15:02;;;;;;;1999.90;999.90;;;;;;;15.83;66.13;96624.56;5077148;28;20040;-82
2023/03/14 09:17:27;;;;;;;1999.90;999.90;;;;;;;15.82;66.79;96649.78;5077454;28;20041;-85
2023/03/14 09:19:54;;;;;;;1999.90;999.90;;;;;;;15.34;67.65;96656.50;5077095;28;20097;-84
2023/03/14 09:22:20;;;;;;;1999.90;999.90;;;;;;;14.73;70.60;96654.22;5079479;28;20024;-88
2023/03/14 09:24:46;;;;;;;1999.90;999.90;;;;;;;14.60;72.07;96657.41;5076646;28;20024;-89
2023/03/14 09:27:11;;;;;;;1999.90;999.90;;;;;;;14.42;72.59;96656.91;5077130;28;20028;-82
2023/03/14 09:29:36;;;;;;;1999.90;999.90;;;;;;;14.25;74.43;96649.75;5075818;28;20081;-88
2023/03/14 09:32:03;;;;;;;1999.90;999.90;;;;;;;14.10;75.45;96649.69;5075774;28;20428;-85
2023/03/14 09:34:28;;;;;;;1999.90;999.90;;;;;;;13.83;78.15;96660.34;5077800;28;20025;-83
2023/03/14 09:36:54;;;;;;;1999.90;999.90;;;;;;;13.56;79.28;96668.53;5075218;28;20024;-82
2023/03/14 09:39:19;;;;;;;1999.90;999.90;;;;;;;13.57;79.29;96672.88;5075745;28;20028;-83
2023/03/14 09:41:48;;;;;;;1999.90;999.90;;;;;;;13.71;79.14;96679.63;5078027;28;20084;-84
2023/03/14 09:44:30;;;;;;;1999.90;999.90;;;;;;;13.69;77.59;96676.41;5075999;28;20036;-84
2023/03/14 09:47:00;;;;;;;1999.90;999.90;;;;;;;13.38;78.42;96693.50;5075441;28;20600;-84
2023/03/14 09:49:35;;;;;;;1999.90;999.90;;;;;;;13.28;78.94;96685.72;5074689;28;20064;-83
2023/03/14 09:52:10;;;;;;;1999.90;999.90;;;;;;;13.07;80.84;96689.69;5076970;28;20044;-86
2023/03/14 09:54:41;;;;;;;1999.90;999.90;;;;;;;12.99;81.41;96696.09;5076697;28;20028;-85
2023/03/14 09:57:12;;;;;;;1999.90;999.90;;;;;;;12.95;81.54;96701.47;5075898;28;20021;-85
2023/03/14 09:59:39;;;;;;;1999.90;999.90;;;;;;;12.83;81.58;96680.31;5076575;28;20511;-86
2023/03/14 10:02:22;;;;;;;1999.90;999.90;;;;;;;12.64;81.96;96702.00;5113222;28;20040;-86
2023/03/14 10:04:50;;;;;;;1999.90;999.90;;;;;;;12.53;85.06;96700.81;5081127;28;20032;-83
2023/03/14 10:07:19;;;;;;;1999.90;999.90;;;;;;;12.46;84.49;96711.53;5078125;28;20051;-82
2023/03/14 10:09:50;;;;;;;1999.90;999.90;;;;;;;12.37;83.94;96727.28;5077874;28;20107;-83
2023/03/14 10:12:16;;;;;;;1999.90;999.90;;;;;;;12.30;86.50;96729.75;5084541;28;20044;-81
2023/03/14 10:14:51;;;;;;;1999.90;999.90;;;;;;;12.16;87.94;96712.78;5083747;28;20094;-79
2023/03/14 10:17:18;;;;;;;1999.90;999.90;;;;;;;12.07;90.76;96710.13;5112368;28;20396;-88
2023/03/14 10:19:54;;;;;;;1999.90;999.90;;;;;;;12.02;92.63;96704.84;5081350;28;20024;-88
2023/03/14 10:22:22;;;;;;;1999.90;999.90;;;;;;;12.28;94.70;96672.50;5080944;28;20036;-88
2023/03/14 10:24:59;;;;;;;1999.90;999.90;;;;;;;12.27;91.90;96686.56;5081920;28;20032;-87
2023/03/14 10:27:35;;;;;;;1999.90;999.90;;;;;;;12.27;90.36;96681.88;5080707;28;20111;-83
2023/03/14 10:30:26;;;;;;;1999.90;999.90;;;;;;;12.27;90.90;96683.81;5080587;28;20021;-84
2023/03/14 10:32:51;;;;;;;1999.90;999.90;;;;;;;12.28;90.31;96671.69;5082815;28;20095;-85
2023/03/14 10:35:17;;;;;;;1999.90;999.90;;;;;;;12.46;90.49;96667.66;5085551;28;20035;-89
2023/03/14 10:38:12;;;;;;;1999.90;999.90;;;;;;;12.58;89.97;96677.84;5083101;28;20028;-84
2023/03/14 10:40:40;;;;;;;1999.90;999.90;;;;;;;13.34;87.66;96670.59;5080122;28;20048;-84
2023/03/14 10:43:13;;;;;;;1999.90;999.90;;;;;;;14.56;80.37;96662.81;5080646;28;20021;-85
2023/03/14 10:45:43;;;;;;;1999.90;999.90;;;;;;;15.60;75.94;96664.25;5083261;28;20508;-83
2023/03/14 10:48:14;;;;;;;1999.90;999.90;;;;;;;16.03;70.07;96652.97;5084025;28;20405;-86
2023/03/14 10:50:55;;;;;;;1999.90;999.90;;;;;;;16.04;70.34;96660.06;5082239;28;20088;-83